Portada
METAR-TAF:

METAR-TAF

Aeroports :

Aeroport Internacional de Singapur-Changi

Singapur, Singapur

latitud: 01-22N, longitud: 103-59E, altitud: 5 m

Observació

L'informe es va fer fa 28 minuts, a les 06:00 UTC
Vent 9 kt del Nord-Est, variant entre Nord-Oest i Est
Temperatura 32°C
Humitat 56%
Pressió 1010 hPa
Visibilitat 10 km o més
Núvols disperses a una alçada de 1800 ft
Cel ennuvolat a una alçada de 35000 ft

METAR: WSSS 230600Z 04009KT 320V090 9999 SCT018 BKN350 32/22 Q1010 NOSIG

Hora: 14:28 (06:28 UTC)

Pronòstic

L'informe es va fer fa 1 hora i 28 minuts, a les 05:00 UTC
Pronòstic vàlid del 23 a les 06 UTC al 24 a les 12 UTC
Vent 10 kt del Nord
Visibilitat 10 km o més
Núvols disperses a una alçada de 2000 ft

TAF: WSSS 230500Z 2306/2412 01010KT 9999 SCT020

Observacions i pronòstics meteorològics de més de 4000 aeroports (METAR i TAF).

Les estacions disponibles són els punts grocs i vermells al mapa.

Posi el ratolí al punt desitjat per veure el nom de l'estació.

Feu clic per veure les observacions i els pronòstics meteorològics.

Per canviar el mapa: feu clic els botons verds amb una creu de color negre per apropar; al botó verd amb un guió per allunyar la imatge; o en les fletxes verdes per a mapes adjacents.


METAR-TAF: